sensor_id;sensor_type;location;lat;lon;timestamp;pressure;altitude;pressure_sealevel;temperature;humidity
76660;BME280;65579;45.534;6.212;2023-11-19T00:01:08;99088.00;;;4.30;64.32
76660;BME280;65579;45.534;6.212;2023-11-19T00:03:34;99081.88;;;3.40;68.42
76660;BME280;65579;45.534;6.212;2023-11-19T00:05:59;99073.16;;;3.17;69.06
76660;BME280;65579;45.534;6.212;2023-11-19T00:08:24;99067.79;;;4.16;65.87
76660;BME280;65579;45.534;6.212;2023-11-19T00:10:50;99064.52;;;5.47;61.36
76660;BME280;65579;45.534;6.212;2023-11-19T00:13:16;99066.58;;;5.21;63.05
76660;BME280;65579;45.534;6.212;2023-11-19T00:15:41;99057.62;;;5.57;60.67
76660;BME280;65579;45.534;6.212;2023-11-19T00:18:06;99058.14;;;4.85;63.74
76660;BME280;65579;45.534;6.212;2023-11-19T00:20:32;99059.68;;;6.29;58.99
76660;BME280;65579;45.534;6.212;2023-11-19T00:22:57;99056.28;;;6.89;56.56
76660;BME280;65579;45.534;6.212;2023-11-19T00:25:22;99052.76;;;7.54;54.51
76660;BME280;65579;45.534;6.212;2023-11-19T00:27:48;99050.71;;;7.39;54.03
76660;BME280;65579;45.534;6.212;2023-11-19T00:30:14;99051.22;;;7.84;52.88
76660;BME280;65579;45.534;6.212;2023-11-19T00:32:39;99047.41;;;7.20;53.51
76660;BME280;65579;45.534;6.212;2023-11-19T00:35:06;99046.75;;;6.68;53.61
76660;BME280;65579;45.534;6.212;2023-11-19T00:37:30;99050.71;;;5.33;59.55
76660;BME280;65579;45.534;6.212;2023-11-19T00:39:56;99048.67;;;5.99;57.10
76660;BME280;65579;45.534;6.212;2023-11-19T00:42:22;99041.32;;;5.02;60.09
76660;BME280;65579;45.534;6.212;2023-11-19T00:44:47;99046.10;;;6.09;58.67
76660;BME280;65579;45.534;6.212;2023-11-19T00:47:12;99041.02;;;6.45;54.91
76660;BME280;65579;45.534;6.212;2023-11-19T00:49:37;99037.57;;;3.45;63.99
76660;BME280;65579;45.534;6.212;2023-11-19T00:52:03;99033.74;;;6.30;56.87
76660;BME280;65579;45.534;6.212;2023-11-19T00:54:28;99027.03;;;7.05;54.29
76660;BME280;65579;45.534;6.212;2023-11-19T00:56:54;99030.28;;;7.28;52.30
76660;BME280;65579;45.534;6.212;2023-11-19T00:59:19;99030.96;;;7.58;52.66
76660;BME280;65579;45.534;6.212;2023-11-19T01:01:45;99033.33;;;6.72;54.68
76660;BME280;65579;45.534;6.212;2023-11-19T01:04:10;99031.07;;;3.78;62.01
76660;BME280;65579;45.534;6.212;2023-11-19T01:06:36;99032.55;;;5.36;57.35
76660;BME280;65579;45.534;6.212;2023-11-19T01:09:02;99027.42;;;6.60;54.66
76660;BME280;65579;45.534;6.212;2023-11-19T01:11:27;99022.63;;;7.09;55.14
76660;BME280;65579;45.534;6.212;2023-11-19T01:13:52;99023.40;;;6.21;55.97
76660;BME280;65579;45.534;6.212;2023-11-19T01:16:18;99017.17;;;5.44;57.65
76660;BME280;65579;45.534;6.212;2023-11-19T01:18:43;99008.85;;;4.91;58.53
76660;BME280;65579;45.534;6.212;2023-11-19T01:21:09;99006.30;;;4.55;62.39
76660;BME280;65579;45.534;6.212;2023-11-19T01:23:34;99006.84;;;4.10;64.08
76660;BME280;65579;45.534;6.212;2023-11-19T01:25:59;99001.03;;;4.31;60.63
76660;BME280;65579;45.534;6.212;2023-11-19T01:28:25;99003.72;;;5.77;57.27
76660;BME280;65579;45.534;6.212;2023-11-19T01:30:51;99005.47;;;5.61;55.76
76660;BME280;65579;45.534;6.212;2023-11-19T01:33:16;99014.33;;;1.72;70.35
76660;BME280;65579;45.534;6.212;2023-11-19T01:35:41;99000.83;;;3.69;64.82
76660;BME280;65579;45.534;6.212;2023-11-19T01:38:07;98997.33;;;2.44;68.87
76660;BME280;65579;45.534;6.212;2023-11-19T01:40:33;98999.94;;;4.87;64.54
76660;BME280;65579;45.534;6.212;2023-11-19T01:42:58;99001.48;;;1.97;73.18
76660;BME280;65579;45.534;6.212;2023-11-19T01:45:27;98991.16;;;5.20;61.05
76660;BME280;65579;45.534;6.212;2023-11-19T01:47:48;98985.97;;;2.44;67.47
76660;BME280;65579;45.534;6.212;2023-11-19T01:50:14;98981.59;;;2.87;72.47
76660;BME280;65579;45.534;6.212;2023-11-19T01:52:39;98979.19;;;5.12;61.81
76660;BME280;65579;45.534;6.212;2023-11-19T01:55:05;98975.20;;;4.36;61.78
76660;BME280;65579;45.534;6.212;2023-11-19T01:57:29;98982.29;;;5.26;59.36
76660;BME280;65579;45.534;6.212;2023-11-19T01:59:54;98981.53;;;3.65;64.77
76660;BME280;65579;45.534;6.212;2023-11-19T02:02:20;98979.68;;;2.31;70.23
76660;BME280;65579;45.534;6.212;2023-11-19T02:04:46;98980.10;;;3.50;65.11
76660;BME280;65579;45.534;6.212;2023-11-19T02:07:11;98980.26;;;2.97;63.34
76660;BME280;65579;45.534;6.212;2023-11-19T02:09:36;98975.17;;;1.83;71.35
76660;BME280;65579;45.534;6.212;2023-11-19T02:12:01;98970.16;;;2.13;70.90
76660;BME280;65579;45.534;6.212;2023-11-19T02:14:27;98971.41;;;2.36;70.79
76660;BME280;65579;45.534;6.212;2023-11-19T02:16:52;98968.54;;;3.93;65.45
76660;BME280;65579;45.534;6.212;2023-11-19T02:19:19;98968.31;;;3.26;65.66
76660;BME280;65579;45.534;6.212;2023-11-19T02:21:43;98970.13;;;2.21;72.75
76660;BME280;65579;45.534;6.212;2023-11-19T02:24:10;98968.27;;;4.13;65.04
76660;BME280;65579;45.534;6.212;2023-11-19T02:26:38;98971.82;;;2.81;69.03
76660;BME280;65579;45.534;6.212;2023-11-19T02:28:59;98968.92;;;4.67;64.30
76660;BME280;65579;45.534;6.212;2023-11-19T02:31:24;98969.85;;;4.85;61.24
76660;BME280;65579;45.534;6.212;2023-11-19T02:33:50;98973.55;;;1.45;70.34
76660;BME280;65579;45.534;6.212;2023-11-19T02:36:15;98971.64;;;3.82;62.41
76660;BME280;65579;45.534;6.212;2023-11-19T02:38:40;98976.27;;;5.26;59.29
76660;BME280;65579;45.534;6.212;2023-11-19T02:41:06;98975.75;;;5.61;57.50
76660;BME280;65579;45.534;6.212;2023-11-19T02:43:31;98972.34;;;4.06;63.26
76660;BME280;65579;45.534;6.212;2023-11-19T02:45:58;98978.53;;;3.66;63.89
76660;BME280;65579;45.534;6.212;2023-11-19T02:48:23;98976.44;;;4.86;60.17
76660;BME280;65579;45.534;6.212;2023-11-19T02:50:48;98972.00;;;5.06;58.97
76660;BME280;65579;45.534;6.212;2023-11-19T02:53:14;98965.83;;;2.72;66.87
76660;BME280;65579;45.534;6.212;2023-11-19T02:55:39;98957.63;;;4.99;59.50
76660;BME280;65579;45.534;6.212;2023-11-19T02:58:05;98954.28;;;3.68;63.28
76660;BME280;65579;45.534;6.212;2023-11-19T03:00:30;98957.20;;;2.82;67.63
76660;BME280;65579;45.534;6.212;2023-11-19T03:02:55;98953.25;;;4.33;63.31
76660;BME280;65579;45.534;6.212;2023-11-19T03:05:21;98949.34;;;5.54;57.29
76660;BME280;65579;45.534;6.212;2023-11-19T03:07:47;98943.18;;;5.82;55.22
76660;BME280;65579;45.534;6.212;2023-11-19T03:10:12;98936.37;;;5.15;55.87
76660;BME280;65579;45.534;6.212;2023-11-19T03:12:38;98937.68;;;4.76;58.83
76660;BME280;65579;45.534;6.212;2023-11-19T03:15:04;98945.77;;;6.04;55.43
76660;BME280;65579;45.534;6.212;2023-11-19T03:17:29;98948.30;;;5.03;57.89
76660;BME280;65579;45.534;6.212;2023-11-19T03:19:55;98948.65;;;3.31;64.80
76660;BME280;65579;45.534;6.212;2023-11-19T03:22:20;98942.45;;;1.41;70.74
76660;BME280;65579;45.534;6.212;2023-11-19T03:24:46;98935.39;;;3.32;64.48
76660;BME280;65579;45.534;6.212;2023-11-19T03:27:11;98939.07;;;2.43;66.39
76660;BME280;65579;45.534;6.212;2023-11-19T03:29:37;98939.85;;;3.71;65.48
76660;BME280;65579;45.534;6.212;2023-11-19T03:32:03;98930.85;;;3.84;62.15
76660;BME280;65579;45.534;6.212;2023-11-19T03:34:29;98936.35;;;0.67;78.65
76660;BME280;65579;45.534;6.212;2023-11-19T03:36:54;98928.74;;;3.27;72.57
76660;BME280;65579;45.534;6.212;2023-11-19T03:39:19;98926.26;;;4.21;62.99
76660;BME280;65579;45.534;6.212;2023-11-19T03:41:45;98926.88;;;4.87;60.27
76660;BME280;65579;45.534;6.212;2023-11-19T03:44:10;98927.42;;;5.63;57.77
76660;BME280;65579;45.534;6.212;2023-11-19T03:46:36;98926.99;;;6.08;57.11
76660;BME280;65579;45.534;6.212;2023-11-19T03:49:02;98934.49;;;2.47;69.64
76660;BME280;65579;45.534;6.212;2023-11-19T03:51:27;98938.42;;;2.05;72.56
76660;BME280;65579;45.534;6.212;2023-11-19T03:53:52;98942.30;;;1.23;77.89
76660;BME280;65579;45.534;6.212;2023-11-19T03:56:18;98941.06;;;3.08;72.47
76660;BME280;65579;45.534;6.212;2023-11-19T03:58:44;98941.64;;;2.35;73.53
76660;BME280;65579;45.534;6.212;2023-11-19T04:01:11;98943.81;;;2.11;77.83
76660;BME280;65579;45.534;6.212;2023-11-19T04:03:35;98945.52;;;2.80;75.93
76660;BME280;65579;45.534;6.212;2023-11-19T04:06:01;98946.46;;;3.46;70.99
76660;BME280;65579;45.534;6.212;2023-11-19T04:08:26;98949.20;;;3.31;71.99
76660;BME280;65579;45.534;6.212;2023-11-19T04:10:51;98942.43;;;3.74;70.00
76660;BME280;65579;45.534;6.212;2023-11-19T04:13:17;98938.83;;;4.10;69.74
76660;BME280;65579;45.534;6.212;2023-11-19T04:15:42;98956.67;;;0.90;86.09
76660;BME280;65579;45.534;6.212;2023-11-19T04:18:08;98953.47;;;3.52;75.79
76660;BME280;65579;45.534;6.212;2023-11-19T04:20:33;98949.26;;;5.47;65.87
76660;BME280;65579;45.534;6.212;2023-11-19T04:22:59;98939.81;;;5.47;65.29
76660;BME280;65579;45.534;6.212;2023-11-19T04:25:24;98934.45;;;6.17;62.84
76660;BME280;65579;45.534;6.212;2023-11-19T04:27:49;98931.28;;;6.34;59.99
76660;BME280;65579;45.534;6.212;2023-11-19T04:30:15;98935.51;;;6.90;57.82
76660;BME280;65579;45.534;6.212;2023-11-19T04:32:40;98935.73;;;7.10;58.03
76660;BME280;65579;45.534;6.212;2023-11-19T04:35:07;98941.09;;;6.03;60.49
76660;BME280;65579;45.534;6.212;2023-11-19T04:37:32;98934.24;;;6.35;59.95
76660;BME280;65579;45.534;6.212;2023-11-19T04:39:57;98933.60;;;7.42;57.09
76660;BME280;65579;45.534;6.212;2023-11-19T04:42:23;98935.86;;;7.63;56.18
76660;BME280;65579;45.534;6.212;2023-11-19T04:44:48;98938.54;;;4.77;64.32
76660;BME280;65579;45.534;6.212;2023-11-19T04:47:14;98930.81;;;7.02;57.96
76660;BME280;65579;45.534;6.212;2023-11-19T04:49:40;98928.81;;;7.34;57.27
76660;BME280;65579;45.534;6.212;2023-11-19T04:52:05;98924.18;;;7.65;57.74
76660;BME280;65579;45.534;6.212;2023-11-19T04:54:31;98924.04;;;7.53;57.30
76660;BME280;65579;45.534;6.212;2023-11-19T04:56:56;98924.40;;;7.10;56.82
76660;BME280;65579;45.534;6.212;2023-11-19T04:59:21;98924.31;;;7.29;56.59
76660;BME280;65579;45.534;6.212;2023-11-19T05:01:47;98923.48;;;7.66;55.48
76660;BME280;65579;45.534;6.212;2023-11-19T05:04:12;98913.66;;;8.21;54.77
76660;BME280;65579;45.534;6.212;2023-11-19T05:06:38;98908.90;;;7.90;54.99
76660;BME280;65579;45.534;6.212;2023-11-19T05:09:03;98916.48;;;5.24;61.54
76660;BME280;65579;45.534;6.212;2023-11-19T05:11:29;98927.87;;;2.86;73.04
76660;BME280;65579;45.534;6.212;2023-11-19T05:13:54;98927.55;;;4.00;69.95
76660;BME280;65579;45.534;6.212;2023-11-19T05:16:19;98928.21;;;5.75;62.30
76660;BME280;65579;45.534;6.212;2023-11-19T05:18:44;98928.40;;;3.77;68.45
76660;BME280;65579;45.534;6.212;2023-11-19T05:21:10;98929.71;;;3.60;70.73
76660;BME280;65579;45.534;6.212;2023-11-19T05:23:35;98924.77;;;3.94;72.11
76660;BME280;65579;45.534;6.212;2023-11-19T05:26:01;98918.47;;;3.98;71.13
76660;BME280;65579;45.534;6.212;2023-11-19T05:28:26;98912.12;;;5.62;65.70
76660;BME280;65579;45.534;6.212;2023-11-19T05:30:51;98906.94;;;4.36;68.89
76660;BME280;65579;45.534;6.212;2023-11-19T05:33:16;98908.56;;;5.75;62.72
76660;BME280;65579;45.534;6.212;2023-11-19T05:35:42;98903.98;;;6.66;59.18
76660;BME280;65579;45.534;6.212;2023-11-19T05:38:08;98900.92;;;3.74;68.44
76660;BME280;65579;45.534;6.212;2023-11-19T05:40:33;98906.78;;;3.12;73.70
76660;BME280;65579;45.534;6.212;2023-11-19T05:42:59;98907.12;;;5.61;63.58
76660;BME280;65579;45.534;6.212;2023-11-19T05:45:24;98911.25;;;4.95;63.65
76660;BME280;65579;45.534;6.212;2023-11-19T05:47:50;98908.07;;;3.40;70.10
76660;BME280;65579;45.534;6.212;2023-11-19T05:50:15;98904.52;;;3.71;69.17
76660;BME280;65579;45.534;6.212;2023-11-19T05:52:41;98904.46;;;3.77;69.97
76660;BME280;65579;45.534;6.212;2023-11-19T05:55:06;98905.64;;;1.46;80.18
76660;BME280;65579;45.534;6.212;2023-11-19T05:57:32;98907.47;;;4.57;67.75
76660;BME280;65579;45.534;6.212;2023-11-19T05:59:58;98903.99;;;5.85;61.76
76660;BME280;65579;45.534;6.212;2023-11-19T06:02:23;98901.43;;;6.14;61.11
76660;BME280;65579;45.534;6.212;2023-11-19T06:04:48;98898.16;;;5.63;61.13
76660;BME280;65579;45.534;6.212;2023-11-19T06:07:14;98890.19;;;6.30;60.05
76660;BME280;65579;45.534;6.212;2023-11-19T06:09:39;98884.77;;;6.33;60.36
76660;BME280;65579;45.534;6.212;2023-11-19T06:12:06;98889.89;;;3.59;67.57
76660;BME280;65579;45.534;6.212;2023-11-19T06:14:30;98892.54;;;3.73;70.14
76660;BME280;65579;45.534;6.212;2023-11-19T06:16:56;98896.42;;;3.96;67.44
76660;BME280;65579;45.534;6.212;2023-11-19T06:19:21;98901.27;;;1.90;81.19
76660;BME280;65579;45.534;6.212;2023-11-19T06:21:46;98899.74;;;4.03;71.73
76660;BME280;65579;45.534;6.212;2023-11-19T06:24:13;98901.65;;;5.90;62.95
76660;BME280;65579;45.534;6.212;2023-11-19T06:26:38;98905.48;;;5.97;62.21
76660;BME280;65579;45.534;6.212;2023-11-19T06:29:03;98901.15;;;6.27;59.26
76660;BME280;65579;45.534;6.212;2023-11-19T06:31:28;98894.82;;;6.62;58.59
76660;BME280;65579;45.534;6.212;2023-11-19T06:33:54;98894.05;;;5.26;60.44
76660;BME280;65579;45.534;6.212;2023-11-19T06:36:19;98892.09;;;6.36;55.87
76660;BME280;65579;45.534;6.212;2023-11-19T06:38:45;98897.03;;;7.25;55.49
76660;BME280;65579;45.534;6.212;2023-11-19T06:41:11;98904.16;;;7.70;54.18
76660;BME280;65579;45.534;6.212;2023-11-19T06:43:36;98901.55;;;7.37;53.62
76660;BME280;65579;45.534;6.212;2023-11-19T06:46:02;98896.63;;;5.54;59.07
76660;BME280;65579;45.534;6.212;2023-11-19T06:48:27;98891.81;;;6.80;55.82
76660;BME280;65579;45.534;6.212;2023-11-19T06:50:52;98898.45;;;5.36;59.38
76660;BME280;65579;45.534;6.212;2023-11-19T06:53:17;98900.92;;;5.90;58.62
76660;BME280;65579;45.534;6.212;2023-11-19T06:55:43;98900.16;;;6.23;56.91
76660;BME280;65579;45.534;6.212;2023-11-19T06:58:08;98897.93;;;6.80;54.51
76660;BME280;65579;45.534;6.212;2023-11-19T07:00:34;98894.53;;;7.20;54.17
76660;BME280;65579;45.534;6.212;2023-11-19T07:02:59;98894.94;;;6.65;53.59
76660;BME280;65579;45.534;6.212;2023-11-19T07:05:25;98893.56;;;7.34;52.68
76660;BME280;65579;45.534;6.212;2023-11-19T07:07:51;98893.74;;;7.37;52.67
76660;BME280;65579;45.534;6.212;2023-11-19T07:10:16;98899.47;;;6.63;54.80
76660;BME280;65579;45.534;6.212;2023-11-19T07:12:41;98906.67;;;3.48;66.51
76660;BME280;65579;45.534;6.212;2023-11-19T07:15:08;98902.35;;;4.54;61.80
76660;BME280;65579;45.534;6.212;2023-11-19T07:17:33;98896.51;;;5.47;58.14
76660;BME280;65579;45.534;6.212;2023-11-19T07:19:59;98895.48;;;5.66;58.63
76660;BME280;65579;45.534;6.212;2023-11-19T07:22:24;98896.27;;;5.97;56.57
76660;BME280;65579;45.534;6.212;2023-11-19T07:24:49;98899.76;;;6.84;54.41
76660;BME280;65579;45.534;6.212;2023-11-19T07:27:15;98899.34;;;6.81;55.40
76660;BME280;65579;45.534;6.212;2023-11-19T07:29:42;98901.54;;;4.94;58.15
76660;BME280;65579;45.534;6.212;2023-11-19T07:32:07;98891.59;;;6.49;54.81
76660;BME280;65579;45.534;6.212;2023-11-19T07:34:32;98889.38;;;7.08;53.73
76660;BME280;65579;45.534;6.212;2023-11-19T07:36:58;98894.48;;;7.11;53.29
76660;BME280;65579;45.534;6.212;2023-11-19T07:39:23;98908.01;;;5.29;58.50
76660;BME280;65579;45.534;6.212;2023-11-19T07:41:49;98912.02;;;5.87;57.90
76660;BME280;65579;45.534;6.212;2023-11-19T07:44:14;98903.57;;;6.48;56.51
76660;BME280;65579;45.534;6.212;2023-11-19T07:46:39;98897.83;;;6.65;56.44
76660;BME280;65579;45.534;6.212;2023-11-19T07:49:05;98901.65;;;6.30;56.59
76660;BME280;65579;45.534;6.212;2023-11-19T07:51:30;98905.29;;;7.04;54.86
76660;BME280;65579;45.534;6.212;2023-11-19T07:53:55;98915.73;;;3.17;67.83
76660;BME280;65579;45.534;6.212;2023-11-19T07:56:21;98918.59;;;4.14;66.16
76660;BME280;65579;45.534;6.212;2023-11-19T07:58:46;98924.81;;;5.53;62.38
76660;BME280;65579;45.534;6.212;2023-11-19T08:01:11;98919.15;;;6.68;57.13
76660;BME280;65579;45.534;6.212;2023-11-19T08:03:37;98912.46;;;6.12;58.99
76660;BME280;65579;45.534;6.212;2023-11-19T08:06:03;98907.96;;;6.19;58.97
76660;BME280;65579;45.534;6.212;2023-11-19T08:08:28;98905.46;;;7.34;55.46
76660;BME280;65579;45.534;6.212;2023-11-19T08:10:53;98908.98;;;7.48;54.45
76660;BME280;65579;45.534;6.212;2023-11-19T08:13:19;98916.43;;;7.68;53.81
76660;BME280;65579;45.534;6.212;2023-11-19T08:15:44;98920.31;;;7.48;54.15
76660;BME280;65579;45.534;6.212;2023-11-19T08:18:10;98924.75;;;6.49;56.34
76660;BME280;65579;45.534;6.212;2023-11-19T08:20:36;98928.49;;;6.01;57.86
76660;BME280;65579;45.534;6.212;2023-11-19T08:23:02;98933.44;;;2.72;69.17
76660;BME280;65579;45.534;6.212;2023-11-19T08:25:27;98922.80;;;2.29;75.83
76660;BME280;65579;45.534;6.212;2023-11-19T08:27:52;98916.67;;;2.55;77.93
76660;BME280;65579;45.534;6.212;2023-11-19T08:30:19;98910.61;;;3.76;71.54
76660;BME280;65579;45.534;6.212;2023-11-19T08:32:43;98908.94;;;3.98;70.19
76660;BME280;65579;45.534;6.212;2023-11-19T08:35:09;98911.38;;;4.81;68.75
76660;BME280;65579;45.534;6.212;2023-11-19T08:37:34;98914.78;;;5.79;65.13
76660;BME280;65579;45.534;6.212;2023-11-19T08:40:00;98911.76;;;7.34;59.58
76660;BME280;65579;45.534;6.212;2023-11-19T08:42:26;98912.10;;;6.38;62.76
76660;BME280;65579;45.534;6.212;2023-11-19T08:44:51;98912.42;;;5.68;63.28
76660;BME280;65579;45.534;6.212;2023-11-19T08:47:17;98918.39;;;7.59;59.26
76660;BME280;65579;45.534;6.212;2023-11-19T08:49:42;98918.76;;;8.23;56.81
76660;BME280;65579;45.534;6.212;2023-11-19T08:52:08;98921.02;;;7.50;57.50
76660;BME280;65579;45.534;6.212;2023-11-19T08:54:34;98921.08;;;6.70;60.14
76660;BME280;65579;45.534;6.212;2023-11-19T08:56:59;98925.87;;;4.34;69.07
76660;BME280;65579;45.534;6.212;2023-11-19T08:59:25;98916.88;;;6.73;62.34
76660;BME280;65579;45.534;6.212;2023-11-19T09:01:50;98908.31;;;8.40;55.29
76660;BME280;65579;45.534;6.212;2023-11-19T09:04:16;98904.92;;;9.30;53.00
76660;BME280;65579;45.534;6.212;2023-11-19T09:06:41;98900.58;;;9.57;52.28
76660;BME280;65579;45.534;6.212;2023-11-19T09:09:07;98894.66;;;6.28;60.63
76660;BME280;65579;45.534;6.212;2023-11-19T09:11:32;98901.86;;;4.86;67.77
76660;BME280;65579;45.534;6.212;2023-11-19T09:13:58;98900.68;;;7.66;58.60
76660;BME280;65579;45.534;6.212;2023-11-19T09:16:24;98906.67;;;5.69;63.51
76660;BME280;65579;45.534;6.212;2023-11-19T09:18:50;98905.72;;;7.12;60.00
76660;BME280;65579;45.534;6.212;2023-11-19T09:21:15;98902.16;;;8.25;56.53
76660;BME280;65579;45.534;6.212;2023-11-19T09:23:41;98903.68;;;7.46;57.79
76660;BME280;65579;45.534;6.212;2023-11-19T09:26:08;98903.80;;;6.19;62.19
76660;BME280;65579;45.534;6.212;2023-11-19T09:28:31;98898.80;;;7.99;58.64
76660;BME280;65579;45.534;6.212;2023-11-19T09:30:56;98901.87;;;9.04;55.47
76660;BME280;65579;45.534;6.212;2023-11-19T09:33:21;98903.62;;;6.80;61.67
76660;BME280;65579;45.534;6.212;2023-11-19T09:35:46;98901.13;;;7.96;59.81
76660;BME280;65579;45.534;6.212;2023-11-19T09:38:12;98898.66;;;8.41;56.63
76660;BME280;65579;45.534;6.212;2023-11-19T09:40:37;98901.21;;;6.35;65.09
76660;BME280;65579;45.534;6.212;2023-11-19T09:43:03;98899.28;;;6.68;64.79
76660;BME280;65579;45.534;6.212;2023-11-19T09:45:29;98898.64;;;8.47;58.87
76660;BME280;65579;45.534;6.212;2023-11-19T09:47:55;98903.48;;;9.44;55.30
76660;BME280;65579;45.534;6.212;2023-11-19T09:50:19;98905.94;;;9.68;54.70
76660;BME280;65579;45.534;6.212;2023-11-19T09:52:44;98898.57;;;9.98;53.60
76660;BME280;65579;45.534;6.212;2023-11-19T09:55:10;98895.79;;;9.24;56.57
76660;BME280;65579;45.534;6.212;2023-11-19T09:57:35;98892.50;;;9.63;56.66
76660;BME280;65579;45.534;6.212;2023-11-19T10:00:01;98887.18;;;9.98;55.14
76660;BME280;65579;45.534;6.212;2023-11-19T10:02:27;98880.84;;;10.01;54.73
76660;BME280;65579;45.534;6.212;2023-11-19T10:04:52;98878.31;;;10.60;52.88
76660;BME280;65579;45.534;6.212;2023-11-19T10:07:17;98871.42;;;10.85;52.46
76660;BME280;65579;45.534;6.212;2023-11-19T10:09:42;98864.98;;;10.95;51.99
76660;BME280;65579;45.534;6.212;2023-11-19T10:12:08;98856.43;;;11.13;51.03
76660;BME280;65579;45.534;6.212;2023-11-19T10:14:35;98854.36;;;11.12;51.41
76660;BME280;65579;45.534;6.212;2023-11-19T10:16:59;98852.86;;;10.27;53.24
76660;BME280;65579;45.534;6.212;2023-11-19T10:19:24;98856.22;;;9.46;55.80
76660;BME280;65579;45.534;6.212;2023-11-19T10:21:49;98854.07;;;10.47;54.53
76660;BME280;65579;45.534;6.212;2023-11-19T10:24:14;98853.34;;;11.00;53.27
76660;BME280;65579;45.534;6.212;2023-11-19T10:26:41;98852.73;;;9.08;57.78
76660;BME280;65579;45.534;6.212;2023-11-19T10:29:05;98843.33;;;10.41;54.73
76660;BME280;65579;45.534;6.212;2023-11-19T10:31:30;98842.18;;;11.05;53.47
76660;BME280;65579;45.534;6.212;2023-11-19T10:33:56;98845.50;;;10.64;54.66
76660;BME280;65579;45.534;6.212;2023-11-19T10:36:22;98840.56;;;10.91;53.85
76660;BME280;65579;45.534;6.212;2023-11-19T10:38:54;98835.06;;;10.83;54.56
76660;BME280;65579;45.534;6.212;2023-11-19T10:43:44;98835.77;;;8.02;63.54
76660;BME280;65579;45.534;6.212;2023-11-19T10:46:09;98831.85;;;9.92;58.53
76660;BME280;65579;45.534;6.212;2023-11-19T10:48:29;98828.82;;;10.35;57.52
76660;BME280;65579;45.534;6.212;2023-11-19T10:50:54;98821.64;;;10.94;55.06
76660;BME280;65579;45.534;6.212;2023-11-19T10:53:21;98816.38;;;11.29;54.37
76660;BME280;65579;45.534;6.212;2023-11-19T10:55:47;98815.68;;;11.32;54.08
76660;BME280;65579;45.534;6.212;2023-11-19T10:58:11;98818.86;;;9.81;57.73
76660;BME280;65579;45.534;6.212;2023-11-19T11:00:39;98813.03;;;11.78;54.11
76660;BME280;65579;45.534;6.212;2023-11-19T11:03:02;98813.65;;;9.84;59.64
76660;BME280;65579;45.534;6.212;2023-11-19T11:05:27;98810.70;;;11.48;56.50
76660;BME280;65579;45.534;6.212;2023-11-19T11:07:55;98807.24;;;11.92;54.35
76660;BME280;65579;45.534;6.212;2023-11-19T11:10:18;98806.37;;;12.52;52.30
76660;BME280;65579;45.534;6.212;2023-11-19T11:12:43;98813.27;;;13.14;50.97
76660;BME280;65579;45.534;6.212;2023-11-19T11:15:11;98808.02;;;12.54;50.04
76660;BME280;65579;45.534;6.212;2023-11-19T11:17:34;98807.30;;;11.89;51.63
76660;BME280;65579;45.534;6.212;2023-11-19T11:20:00;98798.89;;;12.52;50.72
76660;BME280;65579;45.534;6.212;2023-11-19T11:22:26;98801.24;;;10.80;56.42
76660;BME280;65579;45.534;6.212;2023-11-19T11:25:04;98802.47;;;11.13;54.55
76660;BME280;65579;45.534;6.212;2023-11-19T11:27:26;98813.70;;;8.72;62.29
76660;BME280;65579;45.534;6.212;2023-11-19T11:29:47;98812.80;;;8.45;65.69
76660;BME280;65579;45.534;6.212;2023-11-19T11:32:16;98811.44;;;9.95;63.99
76660;BME280;65579;45.534;6.212;2023-11-19T11:34:44;98809.42;;;11.12;60.14
76660;BME280;65579;45.534;6.212;2023-11-19T11:37:06;98806.99;;;12.28;55.94
76660;BME280;65579;45.534;6.212;2023-11-19T11:39:22;98809.38;;;12.72;54.38
76660;BME280;65579;45.534;6.212;2023-11-19T11:41:47;98815.03;;;13.63;52.03
76660;BME280;65579;45.534;6.212;2023-11-19T11:44:13;98807.32;;;13.52;49.89
76660;BME280;65579;45.534;6.212;2023-11-19T11:46:54;98799.13;;;14.17;50.12
76660;BME280;65579;45.534;6.212;2023-11-19T11:49:05;98797.48;;;13.86;48.79
76660;BME280;65579;45.534;6.212;2023-11-19T11:53:54;98795.45;;;9.92;59.49
76660;BME280;65579;45.534;6.212;2023-11-19T11:56:19;98790.49;;;11.49;56.97
76660;BME280;65579;45.534;6.212;2023-11-19T11:58:46;98782.75;;;11.47;55.66
76660;BME280;65579;45.534;6.212;2023-11-19T12:01:15;98774.81;;;11.67;57.36
76660;BME280;65579;45.534;6.212;2023-11-19T12:03:38;98780.50;;;12.98;54.57
76660;BME280;65579;45.534;6.212;2023-11-19T12:06:00;98787.06;;;13.67;52.82
76660;BME280;65579;45.534;6.212;2023-11-19T12:08:28;98793.48;;;14.30;50.82
76660;BME280;65579;45.534;6.212;2023-11-19T12:10:52;98788.23;;;14.39;49.15
76660;BME280;65579;45.534;6.212;2023-11-19T12:13:17;98777.14;;;15.51;47.76
76660;BME280;65579;45.534;6.212;2023-11-19T12:18:08;98762.70;;;15.45;46.05
76660;BME280;65579;45.534;6.212;2023-11-19T12:20:33;98758.58;;;15.63;46.64
76660;BME280;65579;45.534;6.212;2023-11-19T12:23:04;98765.12;;;12.17;52.38
76660;BME280;65579;45.534;6.212;2023-11-19T12:25:23;98765.70;;;11.20;56.54
76660;BME280;65579;45.534;6.212;2023-11-19T12:27:50;98765.07;;;12.20;53.90
76660;BME280;65579;45.534;6.212;2023-11-19T12:30:17;98762.57;;;14.66;46.93
76660;BME280;65579;45.534;6.212;2023-11-19T12:32:41;98763.21;;;14.30;49.73
76660;BME280;65579;45.534;6.212;2023-11-19T12:35:05;98763.50;;;15.47;45.58
76660;BME280;65579;45.534;6.212;2023-11-19T12:37:30;98764.18;;;14.89;45.95
76660;BME280;65579;45.534;6.212;2023-11-19T12:39:57;98762.52;;;14.74;47.13
76660;BME280;65579;45.534;6.212;2023-11-19T12:42:21;98756.54;;;16.22;44.03
76660;BME280;65579;45.534;6.212;2023-11-19T12:44:54;98754.57;;;16.30;43.49
76660;BME280;65579;45.534;6.212;2023-11-19T12:47:12;98753.98;;;15.68;44.05
76660;BME280;65579;45.534;6.212;2023-11-19T12:49:37;98746.55;;;17.11;43.17
76660;BME280;65579;45.534;6.212;2023-11-19T12:54:34;98739.40;;;17.48;42.81
76660;BME280;65579;45.534;6.212;2023-11-19T12:56:53;98747.36;;;17.99;40.22
76660;BME280;65579;45.534;6.212;2023-11-19T12:59:18;98754.90;;;12.37;49.71
76660;BME280;65579;45.534;6.212;2023-11-19T13:01:53;98750.23;;;12.13;51.56
76660;BME280;65579;45.534;6.212;2023-11-19T13:04:17;98743.29;;;15.08;48.22
76660;BME280;65579;45.534;6.212;2023-11-19T13:06:34;98739.88;;;14.35;46.02
76660;BME280;65579;45.534;6.212;2023-11-19T13:08:59;98731.33;;;14.71;48.68